Homer, Michigan
Current Conditions -  °F | °C
As of 9:33 PM on Sunday 25 Jan 2015 (Local Time) from KRMY Reporting Station
Broken Clouds Broken Clouds  
Wind Chill: -13°   Ceiling: 12000
Heat Index: -8°   Visibility: 10mi
Dew Point: -15°   Wind: 6mph
Humidity: 60%   Direction: 50°NE
Pressure: 29.94"   Gusts: NA
Location:  42.15°N, 84.81°W
Report Text: KRMY 260233Z AUTO 05005KT 10SM BKN120 M08/M15 A2994 RMK AO2 T10811146
Loading
Personal Weather Stations






























Interactive Weather Map New forecast layout! Learn more

10-Day Weather Forecast

Advertisements
Track Severe Weather on mobile